Time;durP1;ratioP1;P1;durP2;ratioP2;P2;SDS_P1;SDS_P2;PMS_P1;PMS_P2;Temp;Humidity;BMP_temperature;BMP_pressure;BME280_temperature;BME280_humidity;BME280_pressure;Samples;Min_cycle;Max_cycle;Signal;HPM_P1;HPM_P2
2023/10/30 00:00:27;;;;;;;9.17;1.80;;;;;;;-148.15;100.00;61821.78;4973777;28;20074;-88
2023/10/30 00:02:52;;;;;;;12.20;1.63;;;;;;;-148.15;100.00;61821.78;4973829;28;20479;-87
2023/10/30 00:05:18;;;;;;;11.93;1.93;;;;;;;-148.15;100.00;61821.78;4972965;28;20054;-87
2023/10/30 00:07:43;;;;;;;8.67;1.30;;;;;;;-148.15;100.00;61821.78;4954322;28;20482;-88
2023/10/30 00:10:09;;;;;;;10.43;1.50;;;;;;;-148.15;100.00;61821.78;4973947;28;20094;-88
2023/10/30 00:12:34;;;;;;;12.17;1.50;;;;;;;-148.15;100.00;61821.78;4973176;28;20027;-88
2023/10/30 00:15:03;;;;;;;10.07;1.50;;;;;;;-148.15;100.00;61821.78;4973515;28;20286;-87
2023/10/30 00:17:30;;;;;;;13.85;1.40;;;;;;;-148.15;100.00;61821.78;4955934;28;20026;-88
2023/10/30 00:19:56;;;;;;;7.87;1.63;;;;;;;-148.15;100.00;61821.78;4956773;28;20031;-88
2023/10/30 00:22:21;;;;;;;14.07;1.63;;;;;;;-148.15;100.00;61821.78;4973694;28;20274;-88
2023/10/30 00:24:48;;;;;;;15.57;2.17;;;;;;;-148.15;100.00;61821.78;4970944;28;20027;-87
2023/10/30 00:27:13;;;;;;;12.88;1.80;;;;;;;-148.15;100.00;61821.78;4973219;28;20468;-87
2023/10/30 00:29:40;;;;;;;10.20;1.47;;;;;;;-148.15;100.00;61821.78;4973586;28;20054;-87
2023/10/30 00:32:07;;;;;;;13.93;2.10;;;;;;;-148.15;100.00;61821.78;4955613;28;20119;-87
2023/10/30 00:34:33;;;;;;;11.10;1.48;;;;;;;-148.15;100.00;61821.78;4972702;28;20026;-88
2023/10/30 00:36:58;;;;;;;10.77;1.80;;;;;;;-148.15;100.00;61821.78;4951512;29;20027;-87
2023/10/30 00:39:23;;;;;;;9.23;1.60;;;;;;;-148.15;100.00;61821.78;4953848;29;20024;-87
2023/10/30 00:41:48;;;;;;;11.53;1.77;;;;;;;-148.15;100.00;61821.78;4955610;28;20062;-87
2023/10/30 00:44:14;;;;;;;14.77;1.80;;;;;;;-148.15;100.00;61821.78;4973589;28;20027;-87
2023/10/30 00:46:39;;;;;;;15.17;1.80;;;;;;;-148.15;100.00;61821.78;4972235;28;20474;-88
2023/10/30 00:49:04;;;;;;;14.73;1.70;;;;;;;-148.15;100.00;61821.78;4972996;28;20030;-87
2023/10/30 00:51:30;;;;;;;15.40;1.73;;;;;;;-148.15;100.00;61821.78;4973438;28;20458;-87
2023/10/30 00:53:55;;;;;;;10.67;1.70;;;;;;;-148.15;100.00;61821.78;4974031;28;20027;-87
2023/10/30 00:56:20;;;;;;;11.07;1.80;;;;;;;-148.15;100.00;61821.78;4973173;28;20022;-88
2023/10/30 00:58:46;;;;;;;9.67;1.53;;;;;;;-148.15;100.00;61821.78;4971521;28;20027;-87
2023/10/30 01:01:13;;;;;;;10.15;1.50;;;;;;;-148.15;100.00;61821.78;4973058;28;20029;-87
2023/10/30 01:03:38;;;;;;;15.50;1.53;;;;;;;-148.15;100.00;61821.78;4971455;28;20074;-87
2023/10/30 01:06:04;;;;;;;19.50;2.30;;;;;;;-148.15;100.00;61821.78;4951975;28;20448;-87
2023/10/30 01:08:29;;;;;;;12.30;1.95;;;;;;;-148.15;100.00;61821.78;4971405;28;20027;-88
2023/10/30 01:10:56;;;;;;;10.83;1.47;;;;;;;-148.15;100.00;61821.78;4972692;28;20133;-86
2023/10/30 01:13:22;;;;;;;14.35;1.75;;;;;;;-148.15;100.00;61821.78;4971959;28;20501;-87
2023/10/30 01:15:47;;;;;;;10.90;1.80;;;;;;;-148.15;100.00;61821.78;4970991;28;20039;-87
2023/10/30 01:18:13;;;;;;;16.50;1.75;;;;;;;-148.15;100.00;61821.78;4972150;28;20041;-87
2023/10/30 01:20:39;;;;;;;9.40;1.43;;;;;;;-148.15;100.00;61821.78;4972410;28;20030;-87
2023/10/30 01:23:05;;;;;;;13.88;2.03;;;;;;;-148.15;100.00;61821.78;4954166;28;20063;-87
2023/10/30 01:25:30;;;;;;;10.93;1.60;;;;;;;-148.15;100.00;61821.78;4971591;28;20073;-87
2023/10/30 01:27:55;;;;;;;10.80;1.70;;;;;;;-148.15;100.00;61821.78;4972082;28;20034;-86
2023/10/30 01:30:20;;;;;;;11.50;1.77;;;;;;;-148.15;100.00;61821.78;4972536;28;20022;-88
2023/10/30 01:32:46;;;;;;;10.57;1.50;;;;;;;-148.15;100.00;61821.78;4970030;28;20031;-87
2023/10/30 01:35:11;;;;;;;11.47;1.90;;;;;;;-148.15;100.00;61821.78;4972450;28;20030;-87
2023/10/30 01:37:36;;;;;;;12.50;2.40;;;;;;;-148.15;100.00;61821.78;4971603;28;20035;-87
2023/10/30 01:40:02;;;;;;;16.50;1.50;;;;;;;-148.15;100.00;61821.78;4970931;28;20080;-87
2023/10/30 01:42:27;;;;;;;11.00;1.70;;;;;;;-148.15;100.00;61821.78;4971612;28;20026;-87
2023/10/30 01:44:57;;;;;;;15.18;1.88;;;;;;;-148.15;100.00;61821.78;4970675;28;20505;-87
2023/10/30 01:47:24;;;;;;;12.30;1.90;;;;;;;-148.15;100.00;61821.78;4971778;28;20042;-87
2023/10/30 01:49:51;;;;;;;11.60;1.40;;;;;;;-148.15;100.00;61821.78;4953782;28;20018;-87
2023/10/30 01:52:17;;;;;;;16.30;1.90;;;;;;;-148.15;100.00;61821.78;4971009;28;20038;-87
2023/10/30 01:54:45;;;;;;;18.17;2.00;;;;;;;-148.15;100.00;61821.78;4971457;28;20030;-86
2023/10/30 01:57:11;;;;;;;9.90;1.55;;;;;;;-148.15;100.00;61821.78;4952823;28;20094;-87
2023/10/30 01:59:37;;;;;;;10.90;1.50;;;;;;;-148.15;100.00;61821.78;4971441;28;20023;-87
2023/10/30 02:02:02;;;;;;;12.33;1.83;;;;;;;-148.15;100.00;61821.78;4970648;28;20290;-87
2023/10/30 02:04:28;;;;;;;8.87;1.90;;;;;;;-148.15;100.00;61821.78;4971674;28;20082;-88
2023/10/30 02:06:53;;;;;;;13.25;1.52;;;;;;;-148.15;100.00;61821.78;4952209;28;20637;-87
2023/10/30 02:09:18;;;;;;;8.73;1.60;;;;;;;-148.15;100.00;61821.78;4972443;28;20041;-87
2023/10/30 02:11:44;;;;;;;10.23;1.50;;;;;;;-148.15;100.00;61821.78;4971161;28;20023;-87
2023/10/30 02:14:09;;;;;;;15.53;2.13;;;;;;;-148.15;100.00;61821.78;4970048;28;20046;-87
2023/10/30 02:16:34;;;;;;;10.77;2.07;;;;;;;-148.15;100.00;61821.78;4971193;28;20082;-87
2023/10/30 02:18:59;;;;;;;6.65;1.23;;;;;;;-148.15;100.00;61821.78;4971423;28;20027;-87
2023/10/30 02:21:25;;;;;;;11.10;1.60;;;;;;;-148.15;100.00;61821.78;4971250;28;20077;-87
2023/10/30 02:23:50;;;;;;;10.67;1.63;;;;;;;-148.15;100.00;61821.78;4971283;28;20031;-87
2023/10/30 02:26:16;;;;;;;10.53;1.77;;;;;;;-148.15;100.00;61821.78;4969801;28;20422;-88
2023/10/30 02:28:41;;;;;;;10.80;1.43;;;;;;;-148.15;100.00;61821.78;4971163;28;20027;-88
2023/10/30 02:31:06;;;;;;;11.60;1.80;;;;;;;-148.15;100.00;61821.78;4970290;28;20038;-87
2023/10/30 02:33:32;;;;;;;12.13;1.60;;;;;;;-148.15;100.00;61821.78;4971246;28;20267;-87
2023/10/30 02:35:57;;;;;;;10.63;1.60;;;;;;;-148.15;100.00;61821.78;4970271;28;20652;-87
2023/10/30 02:38:22;;;;;;;14.27;1.83;;;;;;;-148.15;100.00;61821.78;4969949;28;20027;-87
2023/10/30 02:40:48;;;;;;;11.20;1.40;;;;;;;-148.15;100.00;61821.78;4970971;28;20383;-88
2023/10/30 02:43:13;;;;;;;15.10;1.70;;;;;;;-148.15;100.00;61821.78;4971617;28;20479;-89
2023/10/30 02:45:38;;;;;;;12.07;1.63;;;;;;;-148.15;100.00;61821.78;4969934;28;20793;-87
2023/10/30 02:48:04;;;;;;;10.30;1.50;;;;;;;-148.15;100.00;61821.78;4971667;28;20058;-88
2023/10/30 02:50:30;;;;;;;14.60;1.80;;;;;;;-148.15;100.00;61821.78;4969311;28;20446;-87
2023/10/30 02:52:55;;;;;;;8.18;1.38;;;;;;;-148.15;100.00;61821.78;4953143;28;20182;-88
2023/10/30 02:55:21;;;;;;;16.90;1.90;;;;;;;-148.15;100.00;61821.78;4969055;28;20113;-88
2023/10/30 02:57:46;;;;;;;10.73;1.67;;;;;;;-148.15;100.00;61821.78;4970083;28;20033;-87
2023/10/30 03:00:12;;;;;;;10.15;1.70;;;;;;;-148.15;100.00;61821.78;4971095;28;20062;-88
2023/10/30 03:02:37;;;;;;;9.33;1.40;;;;;;;-148.15;100.00;61821.78;4970874;28;20138;-91
2023/10/30 03:05:03;;;;;;;9.07;1.30;;;;;;;-148.15;100.00;61821.78;4968775;28;20557;-90
2023/10/30 03:07:28;;;;;;;10.63;1.45;;;;;;;-148.15;100.00;61821.78;4952052;28;20027;-90
2023/10/30 03:09:53;;;;;;;14.07;1.83;;;;;;;-148.15;100.00;61821.78;4971309;28;20037;-90
2023/10/30 03:12:19;;;;;;;11.13;1.30;;;;;;;-148.15;100.00;61821.78;4971561;28;20030;-90
2023/10/30 03:14:44;;;;;;;12.33;1.63;;;;;;;-148.15;100.00;61821.78;4952835;28;20456;-90
2023/10/30 03:17:09;;;;;;;12.77;2.07;;;;;;;-148.15;100.00;61821.78;4971063;28;20078;-90
2023/10/30 03:19:35;;;;;;;11.93;1.20;;;;;;;-148.15;100.00;61821.78;4971631;28;20046;-90
2023/10/30 03:22:00;;;;;;;9.57;1.40;;;;;;;-148.15;100.00;61821.78;4954090;28;20023;-90
2023/10/30 03:24:26;;;;;;;10.53;1.43;;;;;;;-148.15;100.00;61821.78;4970712;28;20026;-91
2023/10/30 03:26:51;;;;;;;15.30;1.58;;;;;;;-148.15;100.00;61821.78;4957144;28;20031;-90
2023/10/30 03:29:17;;;;;;;9.90;1.50;;;;;;;-148.15;100.00;61821.78;4973712;28;20030;-89
2023/10/30 03:31:43;;;;;;;15.67;1.90;;;;;;;-148.15;100.00;61821.78;4972831;28;20030;-90
2023/10/30 03:34:08;;;;;;;7.85;1.08;;;;;;;-148.15;100.00;61821.78;4973725;28;20037;-90
2023/10/30 03:36:34;;;;;;;10.13;1.57;;;;;;;-148.15;100.00;61821.78;4973800;28;20027;-90
2023/10/30 03:38:59;;;;;;;14.17;1.50;;;;;;;-148.15;100.00;61821.78;4957195;28;20533;-91
2023/10/30 03:41:24;;;;;;;11.67;1.77;;;;;;;-148.15;100.00;61821.78;4974421;28;20049;-91
2023/10/30 03:43:50;;;;;;;8.57;1.37;;;;;;;-148.15;100.00;61821.78;4973275;28;20030;-91
2023/10/30 03:46:15;;;;;;;12.88;1.50;;;;;;;-148.15;100.00;61821.78;4972899;28;20027;-91
2023/10/30 03:48:40;;;;;;;10.53;1.20;;;;;;;-148.15;100.00;61821.78;4973421;28;20030;-89
2023/10/30 03:51:17;;;;;;;13.27;1.73;;;;;;;-148.15;100.00;61821.78;4969978;28;20102;-94
2023/10/30 03:53:42;;;;;;;13.05;1.75;;;;;;;-148.15;100.00;61821.78;4954202;28;20027;-93
2023/10/30 03:56:08;;;;;;;13.47;1.60;;;;;;;-148.15;100.00;61821.78;4994692;28;20022;-92
2023/10/30 03:58:33;;;;;;;9.87;1.57;;;;;;;-148.15;100.00;61821.78;4974645;28;20438;-93
2023/10/30 04:01:09;;;;;;;9.77;1.27;;;;;;;-148.15;100.00;61821.78;4958522;28;20027;-93
2023/10/30 04:03:35;;;;;;;12.25;1.40;;;;;;;-148.15;100.00;61821.78;4974099;28;20042;-91
2023/10/30 04:06:02;;;;;;;11.50;1.63;;;;;;;-148.15;100.00;61821.78;4974286;28;20494;-93
2023/10/30 04:08:27;;;;;;;13.50;1.48;;;;;;;-148.15;100.00;61821.78;4975238;28;20550;-92
2023/10/30 04:10:52;;;;;;;12.90;1.40;;;;;;;-148.15;100.00;61821.78;4972714;28;20117;-93
2023/10/30 04:13:18;;;;;;;10.83;1.50;;;;;;;-148.15;100.00;61821.78;4957039;28;20510;-92
2023/10/30 04:15:44;;;;;;;11.00;1.20;;;;;;;-148.15;100.00;61821.78;4971902;28;20023;-91
2023/10/30 04:18:09;;;;;;;7.63;1.33;;;;;;;-148.15;100.00;61821.78;4955582;28;20034;-91
2023/10/30 04:20:34;;;;;;;9.80;1.60;;;;;;;-148.15;100.00;61821.78;4954279;28;20034;-92
2023/10/30 04:23:01;;;;;;;13.50;1.83;;;;;;;-148.15;100.00;61821.78;4972525;28;20031;-91
2023/10/30 04:25:26;;;;;;;13.73;1.40;;;;;;;-148.15;100.00;61821.78;4972969;28;20074;-91
2023/10/30 04:27:53;;;;;;;9.77;1.50;;;;;;;-148.15;100.00;61821.78;4974199;28;20403;-91
2023/10/30 04:30:21;;;;;;;15.38;1.40;;;;;;;-148.15;100.00;61821.78;4949099;28;20094;-91
2023/10/30 04:32:47;;;;;;;11.50;1.30;;;;;;;-148.15;100.00;61821.78;4954732;29;20035;-91
2023/10/30 04:35:12;;;;;;;11.90;1.50;;;;;;;-148.15;100.00;61821.78;4961451;28;20019;-91
2023/10/30 04:37:37;;;;;;;7.33;1.20;;;;;;;-148.15;100.00;61821.78;4956671;28;20031;-93
2023/10/30 04:40:04;;;;;;;9.13;1.30;;;;;;;-148.15;100.00;61821.78;4975648;28;20035;-94
2023/10/30 04:42:34;;;;;;;11.30;1.38;;;;;;;-148.15;100.00;61821.78;4957672;28;20030;-94
2023/10/30 04:44:59;;;;;;;8.32;1.20;;;;;;;-148.15;100.00;61821.78;4951877;29;20035;-93
2023/10/30 04:47:24;;;;;;;8.87;1.33;;;;;;;-148.15;100.00;61821.78;4981474;28;20037;-92
2023/10/30 04:49:50;;;;;;;15.57;1.50;;;;;;;-148.15;100.00;61821.78;4975059;28;20035;-94
2023/10/30 04:52:15;;;;;;;14.77;1.93;;;;;;;-148.15;100.00;61821.78;4954531;28;20062;-87
2023/10/30 04:54:40;;;;;;;9.73;1.60;;;;;;;-148.15;100.00;61821.78;4971475;28;20402;-88
2023/10/30 04:57:06;;;;;;;11.15;1.50;;;;;;;-148.15;100.00;61821.78;4972612;28;20030;-88
2023/10/30 04:59:31;;;;;;;12.50;1.73;;;;;;;-148.15;100.00;61821.78;4971843;28;20027;-89
2023/10/30 05:01:56;;;;;;;9.87;1.17;;;;;;;-148.15;100.00;61821.78;4972808;28;20082;-88
2023/10/30 05:04:22;;;;;;;10.07;1.57;;;;;;;-148.15;100.00;61821.78;4972767;28;20062;-88
2023/10/30 05:06:48;;;;;;;7.70;1.23;;;;;;;-148.15;100.00;61821.78;4972011;28;20034;-88
2023/10/30 05:09:25;;;;;;;14.45;1.42;;;;;;;-148.15;100.00;61821.78;4980544;23;20038;-88
2023/10/30 05:11:54;;;;;;;12.30;1.52;;;;;;;-148.15;100.00;61821.78;4972557;28;20038;-88
2023/10/30 05:14:20;;;;;;;12.00;1.23;;;;;;;-148.15;100.00;61821.78;4981826;28;20563;-88
2023/10/30 05:16:45;;;;;;;15.93;1.47;;;;;;;-148.15;100.00;61821.78;4989633;28;20034;-87
2023/10/30 05:19:11;;;;;;;13.80;1.50;;;;;;;-148.15;100.00;61821.78;4990919;28;20590;-88
2023/10/30 05:21:36;;;;;;;8.65;1.38;;;;;;;-148.15;100.00;61821.78;4989301;28;20026;-88
2023/10/30 05:24:01;;;;;;;13.00;1.60;;;;;;;-148.15;100.00;61821.78;4990174;28;20034;-90
2023/10/30 05:26:27;;;;;;;13.30;1.47;;;;;;;-148.15;100.00;61821.78;4981234;28;20042;-88
2023/10/30 05:28:52;;;;;;;12.57;1.23;;;;;;;-148.15;100.00;61821.78;4998654;28;20022;-89
2023/10/30 05:31:19;;;;;;;9.53;1.50;;;;;;;-148.15;100.00;61821.78;4981762;28;20045;-89
2023/10/30 05:33:44;;;;;;;16.13;2.10;;;;;;;-148.15;100.00;61821.78;4977298;28;20474;-88
2023/10/30 05:36:10;;;;;;;12.43;1.70;;;;;;;-148.15;100.00;61821.78;4986310;28;20039;-88
2023/10/30 05:38:35;;;;;;;13.13;1.52;;;;;;;-148.15;100.00;61821.78;4996709;28;20073;-89
2023/10/30 05:41:00;;;;;;;8.17;1.40;;;;;;;-148.15;100.00;61821.78;4992135;28;20033;-89
2023/10/30 05:43:27;;;;;;;11.70;1.37;;;;;;;-148.15;100.00;61821.78;4994888;28;20035;-90
2023/10/30 05:45:53;;;;;;;8.07;1.48;;;;;;;-148.15;100.00;61821.78;4990644;28;20034;-88
2023/10/30 05:48:19;;;;;;;15.97;1.60;;;;;;;-148.15;100.00;61821.78;4975708;28;20498;-89
2023/10/30 05:50:45;;;;;;;15.23;1.35;;;;;;;-148.15;100.00;61821.78;4979782;28;20034;-90
2023/10/30 05:53:12;;;;;;;10.98;1.33;;;;;;;-148.15;100.00;61821.78;4991515;28;20069;-89
2023/10/30 05:55:37;;;;;;;11.18;1.58;;;;;;;-148.15;100.00;61821.78;4990051;28;20030;-88
2023/10/30 05:58:02;;;;;;;15.93;1.70;;;;;;;-148.15;100.00;61821.78;4989192;28;20501;-88
2023/10/30 06:00:29;;;;;;;14.10;1.80;;;;;;;-148.15;100.00;61821.78;5005473;28;20019;-91
2023/10/30 06:02:55;;;;;;;12.45;1.52;;;;;;;-148.15;100.00;61821.78;4990433;28;20377;-89
2023/10/30 06:05:21;;;;;;;16.42;2.00;;;;;;;-148.15;100.00;61821.78;4988539;28;20031;-88
2023/10/30 06:07:47;;;;;;;13.60;1.60;;;;;;;-148.15;100.00;61821.78;4989429;28;20033;-89
2023/10/30 06:10:13;;;;;;;17.73;1.60;;;;;;;-148.15;100.00;61821.78;4988735;28;20425;-89
2023/10/30 06:12:39;;;;;;;17.20;1.60;;;;;;;-148.15;100.00;61821.78;4991025;28;20030;-89
2023/10/30 06:15:05;;;;;;;10.88;1.27;;;;;;;-148.15;100.00;61821.78;5005675;28;20493;-89
2023/10/30 06:17:31;;;;;;;10.70;1.53;;;;;;;-148.15;100.00;61821.78;4988280;28;20034;-89
2023/10/30 06:19:56;;;;;;;11.88;1.50;;;;;;;-148.15;100.00;61821.78;4990575;28;20022;-89
2023/10/30 06:22:21;;;;;;;20.60;2.37;;;;;;;-148.15;100.00;61821.78;4989100;28;20034;-87
2023/10/30 06:24:47;;;;;;;16.67;1.60;;;;;;;-148.15;100.00;61821.78;4980792;28;20042;-90
2023/10/30 06:27:13;;;;;;;17.20;2.10;;;;;;;-148.15;100.00;61821.78;4986325;28;20040;-89
2023/10/30 06:29:38;;;;;;;11.47;1.50;;;;;;;-148.15;100.00;61821.78;4987171;28;20041;-88
2023/10/30 06:32:04;;;;;;;14.90;1.50;;;;;;;-148.15;100.00;61821.78;4992479;28;20105;-89
2023/10/30 06:34:29;;;;;;;19.98;1.55;;;;;;;-148.15;100.00;61821.78;4987279;28;20022;-87
2023/10/30 06:36:54;;;;;;;15.93;2.03;;;;;;;-148.15;100.00;61821.78;4989676;28;20391;-89
2023/10/30 06:39:20;;;;;;;10.73;1.37;;;;;;;-148.15;100.00;61821.78;4986142;28;20105;-89
2023/10/30 06:41:48;;;;;;;14.88;1.70;;;;;;;-148.15;100.00;61821.78;4989560;28;20073;-91
2023/10/30 06:44:14;;;;;;;14.98;1.83;;;;;;;-148.15;100.00;61821.78;4991372;28;20026;-88
2023/10/30 06:46:40;;;;;;;14.30;1.70;;;;;;;-148.15;100.00;61821.78;4991190;28;20031;-89
2023/10/30 06:49:05;;;;;;;11.55;1.40;;;;;;;-148.15;100.00;61821.78;4991511;28;20037;-84
2023/10/30 06:51:30;;;;;;;12.33;1.57;;;;;;;-148.15;100.00;61821.78;4989611;28;20085;-84
2023/10/30 06:53:56;;;;;;;12.23;1.77;;;;;;;-148.15;100.00;61821.78;4988242;28;20035;-83
2023/10/30 06:56:21;;;;;;;12.47;1.20;;;;;;;-148.15;100.00;61821.78;4987842;28;20053;-83
2023/10/30 06:58:47;;;;;;;13.18;1.42;;;;;;;-148.15;100.00;61821.78;4989055;28;20347;-83
2023/10/30 07:01:12;;;;;;;18.77;1.70;;;;;;;-148.15;100.00;61821.78;4990698;28;20026;-83
2023/10/30 07:03:37;;;;;;;15.47;1.67;;;;;;;-148.15;100.00;61821.78;4992408;28;20064;-83
2023/10/30 07:06:04;;;;;;;13.73;1.57;;;;;;;-148.15;100.00;61821.78;4992955;28;20042;-83
2023/10/30 07:08:29;;;;;;;15.35;1.98;;;;;;;-148.15;100.00;61821.78;4991027;28;20112;-83
2023/10/30 07:10:55;;;;;;;12.70;2.10;;;;;;;-148.15;100.00;61821.78;4992802;28;20036;-83
2023/10/30 07:13:21;;;;;;;11.98;1.80;;;;;;;-148.15;100.00;61821.78;4992693;28;20031;-83
2023/10/30 07:15:48;;;;;;;18.33;1.97;;;;;;;-148.15;100.00;61821.78;4993696;28;20034;-83
2023/10/30 07:18:13;;;;;;;13.48;1.58;;;;;;;-148.15;100.00;61821.78;4991137;28;20492;-83
2023/10/30 07:20:38;;;;;;;13.93;2.23;;;;;;;-148.15;100.00;61821.78;4993233;28;20529;-84
2023/10/30 07:23:03;;;;;;;14.10;1.40;;;;;;;-148.15;100.00;61821.78;4992593;28;20023;-84
2023/10/30 07:25:29;;;;;;;15.32;2.15;;;;;;;-148.15;100.00;61821.78;4992523;28;20501;-84
2023/10/30 07:27:54;;;;;;;15.20;2.03;;;;;;;-148.15;100.00;61821.78;4993343;28;20027;-84
2023/10/30 07:30:19;;;;;;;11.37;1.67;;;;;;;-148.15;100.00;61821.78;4992912;28;20069;-84
2023/10/30 07:32:45;;;;;;;11.73;1.67;;;;;;;-148.15;100.00;61821.78;4990946;28;20038;-83
2023/10/30 07:35:11;;;;;;;13.30;1.88;;;;;;;-148.15;100.00;61821.78;4992605;28;21668;-84
2023/10/30 07:37:36;;;;;;;17.07;2.03;;;;;;;-148.15;100.00;61821.78;4991035;28;20026;-83
2023/10/30 07:40:05;;;;;;;13.07;1.80;;;;;;;-148.15;100.00;61821.78;4992962;28;20038;-84
2023/10/30 07:42:31;;;;;;;11.73;1.67;;;;;;;-148.15;100.00;61821.78;4992208;28;20394;-83
2023/10/30 07:44:56;;;;;;;18.17;2.70;;;;;;;-148.15;100.00;61821.78;4991113;28;20035;-84
2023/10/30 07:47:21;;;;;;;7.83;1.70;;;;;;;-148.15;100.00;61821.78;4993162;28;20045;-84
2023/10/30 07:49:47;;;;;;;20.52;2.25;;;;;;;-148.15;100.00;61821.78;4989284;28;20029;-84
2023/10/30 07:52:12;;;;;;;13.20;1.67;;;;;;;-148.15;100.00;61821.78;4990818;28;20039;-83
2023/10/30 07:54:38;;;;;;;17.10;1.67;;;;;;;-148.15;100.00;61821.78;4990848;28;20050;-83
2023/10/30 07:57:04;;;;;;;10.32;2.10;;;;;;;-148.15;100.00;61821.78;4990762;28;20030;-83
2023/10/30 07:59:32;;;;;;;9.63;1.73;;;;;;;-148.15;100.00;61821.78;4990983;28;20069;-83
2023/10/30 08:01:58;;;;;;;13.43;1.80;;;;;;;-148.15;100.00;61821.78;4992599;28;20417;-84
2023/10/30 08:04:23;;;;;;;20.67;2.03;;;;;;;-148.15;100.00;61821.78;4990710;28;20049;-84
2023/10/30 08:06:48;;;;;;;11.97;1.97;;;;;;;-148.15;100.00;61821.78;4984076;28;20057;-84
2023/10/30 08:09:15;;;;;;;7.60;1.53;;;;;;;-148.15;100.00;61821.78;4992177;28;20105;-84
2023/10/30 08:11:42;;;;;;;13.27;1.83;;;;;;;-148.15;100.00;61821.78;4991654;28;20487;-83
2023/10/30 08:14:07;;;;;;;16.73;1.85;;;;;;;-148.15;100.00;61821.78;4989209;28;20085;-84
2023/10/30 08:16:34;;;;;;;7.47;1.77;;;;;;;-148.15;100.00;61821.78;4989684;28;20030;-84
2023/10/30 08:19:00;;;;;;;13.48;1.70;;;;;;;-148.15;100.00;61821.78;4988483;28;20033;-84
2023/10/30 08:21:25;;;;;;;8.93;1.40;;;;;;;-148.15;100.00;61821.78;4988750;28;20474;-83
2023/10/30 08:23:50;;;;;;;12.73;1.93;;;;;;;-148.15;100.00;61821.78;4991136;28;20078;-85
2023/10/30 08:26:16;;;;;;;11.30;1.73;;;;;;;-148.15;100.00;61821.78;4991170;28;20070;-85
2023/10/30 08:28:42;;;;;;;14.17;2.13;;;;;;;-148.15;100.00;61821.78;4994493;28;20030;-86
2023/10/30 08:31:08;;;;;;;16.90;2.10;;;;;;;-148.15;100.00;61821.78;4992548;28;20285;-86
2023/10/30 08:33:33;;;;;;;13.43;2.15;;;;;;;-148.15;100.00;61821.78;4990832;28;20042;-86
2023/10/30 08:35:58;;;;;;;12.30;1.60;;;;;;;-148.15;100.00;61821.78;4991189;28;20031;-85
2023/10/30 08:38:23;;;;;;;9.70;1.33;;;;;;;-148.15;100.00;61821.78;4991404;28;20023;-85
2023/10/30 08:40:51;;;;;;;14.57;1.90;;;;;;;-148.15;100.00;61821.78;4991606;28;20478;-84
2023/10/30 08:43:17;;;;;;;9.57;1.50;;;;;;;-148.15;100.00;61821.78;4991743;28;20028;-84
2023/10/30 08:45:42;;;;;;;6.30;1.47;;;;;;;-148.15;100.00;61821.78;4989050;28;20517;-84
2023/10/30 08:48:07;;;;;;;14.97;1.93;;;;;;;-148.15;100.00;61821.78;4991935;28;20022;-84
2023/10/30 08:50:33;;;;;;;11.43;2.23;;;;;;;-148.15;100.00;61821.78;4990075;28;20508;-84
2023/10/30 08:52:58;;;;;;;11.13;1.67;;;;;;;-148.15;100.00;61821.78;4991940;28;20070;-84
2023/10/30 08:55:23;;;;;;;9.40;1.35;;;;;;;-148.15;100.00;61821.78;4987750;28;20026;-86
2023/10/30 08:57:49;;;;;;;6.17;1.40;;;;;;;-148.15;100.00;61821.78;4990236;28;20030;-85
2023/10/30 09:00:17;;;;;;;7.93;1.60;;;;;;;-148.15;100.00;61821.78;4993512;28;20030;-84
2023/10/30 09:02:43;;;;;;;7.15;1.45;;;;;;;-148.15;100.00;61821.78;4978784;28;20034;-84
2023/10/30 09:05:08;;;;;;;10.60;1.50;;;;;;;-148.15;100.00;61821.78;4990358;28;20049;-83
2023/10/30 09:07:34;;;;;;;7.68;1.50;;;;;;;-148.15;100.00;61821.78;4999197;23;20481;-89
2023/10/30 09:10:16;;;;;;;10.13;1.87;;;;;;;-148.15;100.00;61821.78;4996314;28;20568;-84
2023/10/30 09:12:42;;;;;;;11.98;1.30;;;;;;;-148.15;100.00;61821.78;4991068;28;20465;-84
2023/10/30 09:15:08;;;;;;;10.63;1.60;;;;;;;-148.15;100.00;61821.78;4993444;28;20128;-85
2023/10/30 09:17:34;;;;;;;11.38;1.60;;;;;;;-148.15;100.00;61821.78;5011423;28;20029;-85
2023/10/30 09:19:59;;;;;;;12.80;1.80;;;;;;;-148.15;100.00;61821.78;4981214;28;20040;-84
2023/10/30 09:22:25;;;;;;;5.65;1.40;;;;;;;-148.15;100.00;61821.78;4999353;28;20069;-84
2023/10/30 09:24:51;;;;;;;10.20;1.50;;;;;;;-148.15;100.00;61821.78;5005542;28;20026;-84
2023/10/30 09:27:16;;;;;;;11.02;1.75;;;;;;;-148.15;100.00;61821.78;5011109;28;20118;-84
2023/10/30 09:29:42;;;;;;;10.17;1.43;;;;;;;-148.15;100.00;61821.78;4991183;28;20072;-84
2023/10/30 09:32:07;;;;;;;10.57;1.67;;;;;;;-148.15;100.00;61821.78;4977734;28;20096;-84
2023/10/30 09:34:34;;;;;;;11.83;1.83;;;;;;;-148.15;100.00;61821.78;4981802;28;20193;-85
2023/10/30 09:37:00;;;;;;;9.13;1.50;;;;;;;-148.15;100.00;61821.78;5000491;28;20109;-84
2023/10/30 09:39:25;;;;;;;12.23;1.40;;;;;;;-148.15;100.00;61821.78;4994758;28;20157;-84
2023/10/30 09:41:52;;;;;;;11.10;1.40;;;;;;;-148.15;100.00;61821.78;4991268;28;20025;-84
2023/10/30 09:44:18;;;;;;;16.33;1.93;;;;;;;-148.15;100.00;61821.78;5005656;28;20542;-84
2023/10/30 09:46:45;;;;;;;12.60;1.57;;;;;;;-148.15;100.00;61821.78;5010458;28;21066;-84
2023/10/30 09:49:14;;;;;;;11.80;1.70;;;;;;;-148.15;100.00;61821.78;5001914;28;20463;-84
2023/10/30 09:51:43;;;;;;;10.40;1.55;;;;;;;-148.15;100.00;61821.78;4981727;28;20410;-85
2023/10/30 09:54:09;;;;;;;8.18;1.30;;;;;;;-148.15;100.00;61821.78;4973913;28;20053;-84
2023/10/30 09:56:38;;;;;;;8.23;1.27;;;;;;;-148.15;100.00;61821.78;4990341;28;20058;-84
2023/10/30 09:59:04;;;;;;;6.20;1.35;;;;;;;-148.15;100.00;61821.78;4997950;28;20026;-85
2023/10/30 10:01:29;;;;;;;6.57;1.20;;;;;;;-148.15;100.00;61821.78;4988930;28;20478;-84
2023/10/30 10:03:54;;;;;;;7.17;1.20;;;;;;;-148.15;100.00;61821.78;4999223;28;20026;-83
2023/10/30 10:06:20;;;;;;;7.47;1.47;;;;;;;-148.15;100.00;61821.78;4989639;28;20022;-83
2023/10/30 10:08:46;;;;;;;12.55;1.58;;;;;;;-148.15;100.00;61821.78;4995738;28;20030;-85
2023/10/30 10:11:12;;;;;;;7.22;1.40;;;;;;;-148.15;100.00;61821.78;5009624;23;20049;-85
2023/10/30 10:13:38;;;;;;;9.00;1.33;;;;;;;-148.15;100.00;61821.78;4998921;28;20037;-85
2023/10/30 10:16:04;;;;;;;5.80;1.40;;;;;;;-148.15;100.00;61821.78;4990378;28;20482;-84
2023/10/30 10:18:31;;;;;;;9.63;1.38;;;;;;;-148.15;100.00;61821.78;4996810;28;20036;-84
2023/10/30 10:21:04;;;;;;;6.82;1.65;;;;;;;-148.15;100.00;61821.78;4989726;28;20019;-87
2023/10/30 10:23:32;;;;;;;4.77;0.90;;;;;;;-148.15;100.00;61821.78;5002349;28;20069;-84
2023/10/30 10:25:59;;;;;;;10.73;1.23;;;;;;;-148.15;100.00;61821.78;4978150;28;20045;-84
2023/10/30 10:28:26;;;;;;;9.40;1.58;;;;;;;-148.15;100.00;61821.78;4990262;28;20102;-85
2023/10/30 10:30:53;;;;;;;6.95;1.38;;;;;;;-148.15;100.00;61821.78;4990562;28;20034;-84
2023/10/30 10:33:24;;;;;;;8.35;1.50;;;;;;;-148.15;100.00;61821.78;5007657;28;20117;-85
2023/10/30 10:36:06;;;;;;;9.57;1.40;;;;;;;-148.15;100.00;61821.78;4989274;28;20481;-85
2023/10/30 10:38:32;;;;;;;5.22;1.23;;;;;;;-148.15;100.00;61821.78;4993385;28;20442;-85
2023/10/30 10:40:58;;;;;;;6.32;1.20;;;;;;;-148.15;100.00;61821.78;4983132;28;20061;-84
2023/10/30 10:43:26;;;;;;;9.82;1.30;;;;;;;-148.15;100.00;61821.78;5005883;28;20040;-84
2023/10/30 10:45:53;;;;;;;7.22;1.20;;;;;;;-148.15;100.00;61821.78;4994538;28;20038;-84
2023/10/30 10:48:21;;;;;;;6.60;1.17;;;;;;;-148.15;100.00;61821.78;4994811;28;20054;-84
2023/10/30 10:50:47;;;;;;;7.83;1.33;;;;;;;-148.15;100.00;61821.78;4992587;28;20310;-83
2023/10/30 10:53:15;;;;;;;9.10;1.13;;;;;;;-148.15;100.00;61821.78;4992827;28;20054;-84
2023/10/30 10:55:46;;;;;;;4.85;1.13;;;;;;;-148.15;100.00;61821.78;4993685;28;20042;-84
2023/10/30 10:58:17;;;;;;;6.35;1.38;;;;;;;-148.15;100.00;61821.78;4994569;28;20053;-84